sensor_id;sensor_type;location;lat;lon;timestamp;pressure;altitude;pressure_sealevel;temperature;humidity
34297;BME280;20564;42.902;25.336;2023-08-08T00:01:45;97091.56;;;17.98;100.00
34297;BME280;20564;42.902;25.336;2023-08-08T00:04:12;97094.28;;;17.83;100.00
34297;BME280;20564;42.902;25.336;2023-08-08T00:06:39;97082.56;;;17.78;100.00
34297;BME280;20564;42.902;25.336;2023-08-08T00:09:06;97089.91;;;17.76;100.00
34297;BME280;20564;42.902;25.336;2023-08-08T00:11:33;97079.16;;;17.69;100.00
34297;BME280;20564;42.902;25.336;2023-08-08T00:14:01;97085.25;;;17.63;100.00
34297;BME280;20564;42.902;25.336;2023-08-08T00:16:28;97077.19;;;17.56;100.00
34297;BME280;20564;42.902;25.336;2023-08-08T00:18:55;97076.84;;;17.45;100.00
34297;BME280;20564;42.902;25.336;2023-08-08T00:21:22;97077.22;;;17.42;100.00
34297;BME280;20564;42.902;25.336;2023-08-08T00:23:49;97085.63;;;17.45;100.00
34297;BME280;20564;42.902;25.336;2023-08-08T00:26:16;97080.44;;;17.37;100.00
34297;BME280;20564;42.902;25.336;2023-08-08T00:28:43;97074.66;;;17.33;100.00
34297;BME280;20564;42.902;25.336;2023-08-08T00:31:11;97080.44;;;17.37;100.00
34297;BME280;20564;42.902;25.336;2023-08-08T00:33:38;97078.75;;;17.36;100.00
34297;BME280;20564;42.902;25.336;2023-08-08T00:36:05;97079.53;;;17.30;100.00
34297;BME280;20564;42.902;25.336;2023-08-08T00:38:32;97083.25;;;17.35;100.00
34297;BME280;20564;42.902;25.336;2023-08-08T00:40:59;97083.63;;;17.32;100.00
34297;BME280;20564;42.902;25.336;2023-08-08T00:43:27;97075.28;;;17.35;100.00
34297;BME280;20564;42.902;25.336;2023-08-08T00:45:54;97078.75;;;17.36;100.00
34297;BME280;20564;42.902;25.336;2023-08-08T00:48:24;97082.19;;;17.30;100.00
34297;BME280;20564;42.902;25.336;2023-08-08T00:50:52;97074.81;;;17.32;100.00
34297;BME280;20564;42.902;25.336;2023-08-08T00:53:19;97061.16;;;17.35;100.00
34297;BME280;20564;42.902;25.336;2023-08-08T00:55:46;97070.63;;;17.23;100.00
34297;BME280;20564;42.902;25.336;2023-08-08T00:58:17;97065.03;;;17.18;100.00
34297;BME280;20564;42.902;25.336;2023-08-08T01:00:44;97069.25;;;17.27;100.00
34297;BME280;20564;42.902;25.336;2023-08-08T01:03:11;97080.16;;;17.17;100.00
34297;BME280;20564;42.902;25.336;2023-08-08T01:05:43;97074.47;;;17.20;100.00
34297;BME280;20564;42.902;25.336;2023-08-08T01:08:16;97070.34;;;17.18;100.00
34297;BME280;20564;42.902;25.336;2023-08-08T01:10:46;97078.31;;;17.18;100.00
34297;BME280;20564;42.902;25.336;2023-08-08T01:13:18;97073.34;;;17.29;100.00
34297;BME280;20564;42.902;25.336;2023-08-08T01:15:46;97077.84;;;17.29;100.00
34297;BME280;20564;42.902;25.336;2023-08-08T01:18:16;97092.38;;;17.26;100.00
34297;BME280;20564;42.902;25.336;2023-08-08T01:20:47;97118.41;;;17.31;100.00
34297;BME280;20564;42.902;25.336;2023-08-08T01:23:36;97121.06;;;17.31;100.00
34297;BME280;20564;42.902;25.336;2023-08-08T01:26:08;97126.38;;;17.31;100.00
34297;BME280;20564;42.902;25.336;2023-08-08T01:28:35;97111.72;;;17.20;100.00
34297;BME280;20564;42.902;25.336;2023-08-08T01:31:03;97110.34;;;17.09;100.00
34297;BME280;20564;42.902;25.336;2023-08-08T01:33:34;97121.06;;;17.01;100.00
34297;BME280;20564;42.902;25.336;2023-08-08T01:36:08;97112.88;;;16.88;100.00
34297;BME280;20564;42.902;25.336;2023-08-08T01:38:41;97107.00;;;16.78;100.00
34297;BME280;20564;42.902;25.336;2023-08-08T01:41:13;97107.75;;;16.63;100.00
34297;BME280;20564;42.902;25.336;2023-08-08T01:43:41;97101.97;;;16.60;100.00
34297;BME280;20564;42.902;25.336;2023-08-08T01:46:09;97092.44;;;16.51;100.00
34297;BME280;20564;42.902;25.336;2023-08-08T01:48:36;97089.31;;;16.47;100.00
34297;BME280;20564;42.902;25.336;2023-08-08T01:51:03;97080.34;;;16.48;100.00
34297;BME280;20564;42.902;25.336;2023-08-08T01:53:31;97089.56;;;16.37;100.00
34297;BME280;20564;42.902;25.336;2023-08-08T01:55:58;97092.13;;;16.31;100.00
34297;BME280;20564;42.902;25.336;2023-08-08T01:58:26;97090.06;;;16.18;100.00
34297;BME280;20564;42.902;25.336;2023-08-08T02:00:53;97082.91;;;16.19;100.00
34297;BME280;20564;42.902;25.336;2023-08-08T02:03:20;97092.53;;;16.20;100.00
34297;BME280;20564;42.902;25.336;2023-08-08T02:05:47;97093.53;;;16.19;100.00
34297;BME280;20564;42.902;25.336;2023-08-08T02:08:17;97084.75;;;16.18;100.00
34297;BME280;20564;42.902;25.336;2023-08-08T02:10:45;97082.56;;;16.22;100.00
34297;BME280;20564;42.902;25.336;2023-08-08T02:13:12;97085.22;;;16.22;100.00
34297;BME280;20564;42.902;25.336;2023-08-08T02:15:39;97088.16;;;16.27;100.00
34297;BME280;20564;42.902;25.336;2023-08-08T02:18:06;97083.31;;;16.30;100.00
34297;BME280;20564;42.902;25.336;2023-08-08T02:20:34;97090.75;;;16.35;100.00
34297;BME280;20564;42.902;25.336;2023-08-08T02:23:10;97083.31;;;16.30;100.00
34297;BME280;20564;42.902;25.336;2023-08-08T02:25:38;97087.22;;;16.20;100.00
34297;BME280;20564;42.902;25.336;2023-08-08T02:28:05;97091.22;;;16.15;100.00
34297;BME280;20564;42.902;25.336;2023-08-08T02:30:32;97088.53;;;16.24;100.00
34297;BME280;20564;42.902;25.336;2023-08-08T02:33:03;97091.00;;;16.25;100.00
34297;BME280;20564;42.902;25.336;2023-08-08T02:35:30;97089.81;;;16.28;100.00
34297;BME280;20564;42.902;25.336;2023-08-08T02:37:57;97093.38;;;16.20;100.00
34297;BME280;20564;42.902;25.336;2023-08-08T02:40:24;97097.47;;;16.23;100.00
34297;BME280;20564;42.902;25.336;2023-08-08T02:42:53;97101.84;;;16.15;100.00
34297;BME280;20564;42.902;25.336;2023-08-08T02:45:20;97106.34;;;16.15;100.00
34297;BME280;20564;42.902;25.336;2023-08-08T02:47:47;97116.41;;;16.20;100.00
34297;BME280;20564;42.902;25.336;2023-08-08T02:50:15;97122.41;;;16.22;100.00
34297;BME280;20564;42.902;25.336;2023-08-08T02:52:42;97132.00;;;16.23;100.00
34297;BME280;20564;42.902;25.336;2023-08-08T02:55:09;97126.00;;;16.29;100.00
34297;BME280;20564;42.902;25.336;2023-08-08T02:57:37;97118.97;;;16.36;100.00
34297;BME280;20564;42.902;25.336;2023-08-08T03:00:04;97122.53;;;16.28;100.00
34297;BME280;20564;42.902;25.336;2023-08-08T03:02:34;97149.44;;;16.25;100.00
34297;BME280;20564;42.902;25.336;2023-08-08T03:05:02;97160.25;;;16.24;100.00
34297;BME280;20564;42.902;25.336;2023-08-08T03:07:29;97171.84;;;16.23;100.00
34297;BME280;20564;42.902;25.336;2023-08-08T03:09:56;97172.66;;;16.23;100.00
34297;BME280;20564;42.902;25.336;2023-08-08T03:12:23;97162.91;;;16.24;100.00
34297;BME280;20564;42.902;25.336;2023-08-08T03:14:50;97156.97;;;16.13;100.00
34297;BME280;20564;42.902;25.336;2023-08-08T03:17:17;97183.53;;;16.13;100.00
34297;BME280;20564;42.902;25.336;2023-08-08T03:19:44;97192.50;;;16.12;100.00
34297;BME280;20564;42.902;25.336;2023-08-08T03:22:11;97187.22;;;16.04;100.00
34297;BME280;20564;42.902;25.336;2023-08-08T03:24:38;97191.06;;;16.02;100.00
34297;BME280;20564;42.902;25.336;2023-08-08T03:27:05;97193.53;;;16.03;100.00
34297;BME280;20564;42.902;25.336;2023-08-08T03:29:32;97198.84;;;16.03;100.00
34297;BME280;20564;42.902;25.336;2023-08-08T03:31:59;97202.81;;;16.07;100.00
34297;BME280;20564;42.902;25.336;2023-08-08T03:34:26;97207.13;;;16.08;100.00
34297;BME280;20564;42.902;25.336;2023-08-08T03:36:53;97205.13;;;16.10;100.00
34297;BME280;20564;42.902;25.336;2023-08-08T03:39:21;97199.47;;;16.13;100.00
34297;BME280;20564;42.902;25.336;2023-08-08T03:41:48;97205.94;;;16.11;100.00
34297;BME280;20564;42.902;25.336;2023-08-08T03:44:15;97199.00;;;16.10;100.00
34297;BME280;20564;42.902;25.336;2023-08-08T03:46:45;97200.16;;;16.07;100.00
34297;BME280;20564;42.902;25.336;2023-08-08T03:49:12;97212.44;;;16.08;100.00
34297;BME280;20564;42.902;25.336;2023-08-08T03:51:39;97221.88;;;16.11;100.00
34297;BME280;20564;42.902;25.336;2023-08-08T03:54:06;97225.34;;;16.11;100.00
34297;BME280;20564;42.902;25.336;2023-08-08T03:56:33;97231.69;;;16.10;100.00
34297;BME280;20564;42.902;25.336;2023-08-08T03:59:03;97232.03;;;16.07;100.00
34297;BME280;20564;42.902;25.336;2023-08-08T04:01:30;97227.66;;;16.14;100.00
34297;BME280;20564;42.902;25.336;2023-08-08T04:03:57;97219.88;;;16.13;100.00
34297;BME280;20564;42.902;25.336;2023-08-08T04:06:24;97228.97;;;16.19;100.00
34297;BME280;20564;42.902;25.336;2023-08-08T04:08:52;97234.47;;;16.17;100.00
34297;BME280;20564;42.902;25.336;2023-08-08T04:11:18;97241.09;;;16.21;100.00
34297;BME280;20564;42.902;25.336;2023-08-08T04:13:46;97243.59;;;16.14;100.00
34297;BME280;20564;42.902;25.336;2023-08-08T04:16:13;97246.31;;;16.06;100.00
34297;BME280;20564;42.902;25.336;2023-08-08T04:18:41;97245.97;;;16.09;100.00
34297;BME280;20564;42.902;25.336;2023-08-08T04:21:08;97257.75;;;16.07;100.00
34297;BME280;20564;42.902;25.336;2023-08-08T04:23:36;97265.72;;;16.07;100.00
34297;BME280;20564;42.902;25.336;2023-08-08T04:26:03;97271.22;;;16.05;100.00
34297;BME280;20564;42.902;25.336;2023-08-08T04:28:31;97259.41;;;16.08;100.00
34297;BME280;20564;42.902;25.336;2023-08-08T04:30:58;97261.91;;;16.09;100.00
34297;BME280;20564;42.902;25.336;2023-08-08T04:33:25;97259.88;;;16.11;100.00
34297;BME280;20564;42.902;25.336;2023-08-08T04:35:52;97268.50;;;16.13;100.00
34297;BME280;20564;42.902;25.336;2023-08-08T04:38:19;97278.78;;;16.17;100.00
34297;BME280;20564;42.902;25.336;2023-08-08T04:40:46;97271.47;;;16.19;100.00
34297;BME280;20564;42.902;25.336;2023-08-08T04:43:13;97263.84;;;16.15;100.00
34297;BME280;20564;42.902;25.336;2023-08-08T04:45:46;97278.78;;;16.17;100.00
34297;BME280;20564;42.902;25.336;2023-08-08T04:48:14;97279.13;;;16.13;100.00
34297;BME280;20564;42.902;25.336;2023-08-08T04:50:41;97269.28;;;16.22;100.00
34297;BME280;20564;42.902;25.336;2023-08-08T04:53:08;97275.13;;;16.18;100.00
34297;BME280;20564;42.902;25.336;2023-08-08T04:55:35;97258.84;;;16.21;100.00
34297;BME280;20564;42.902;25.336;2023-08-08T04:58:02;97264.16;;;16.21;100.00
34297;BME280;20564;42.902;25.336;2023-08-08T05:00:29;97266.28;;;16.25;100.00
34297;BME280;20564;42.902;25.336;2023-08-08T05:02:56;97279.09;;;16.22;100.00
34297;BME280;20564;42.902;25.336;2023-08-08T05:05:24;97298.97;;;16.26;100.00
34297;BME280;20564;42.902;25.336;2023-08-08T05:07:51;97307.28;;;16.23;100.00
34297;BME280;20564;42.902;25.336;2023-08-08T05:10:18;97312.97;;;16.11;100.00
34297;BME280;20564;42.902;25.336;2023-08-08T05:12:46;97321.63;;;16.13;100.00
34297;BME280;20564;42.902;25.336;2023-08-08T05:15:13;97325.63;;;16.09;100.00
34297;BME280;20564;42.902;25.336;2023-08-08T05:17:40;97324.13;;;16.07;100.00
34297;BME280;20564;42.902;25.336;2023-08-08T05:20:09;97316.66;;;16.10;100.00
34297;BME280;20564;42.902;25.336;2023-08-08T05:22:37;97313.31;;;16.17;100.00
34297;BME280;20564;42.902;25.336;2023-08-08T05:25:05;97306.16;;;16.17;100.00
34297;BME280;20564;42.902;25.336;2023-08-08T05:27:32;97307.00;;;16.18;100.00
34297;BME280;20564;42.902;25.336;2023-08-08T05:29:59;97308.88;;;16.09;100.00
34297;BME280;20564;42.902;25.336;2023-08-08T05:32:26;97319.50;;;16.09;100.00
34297;BME280;20564;42.902;25.336;2023-08-08T05:34:53;97310.03;;;16.06;100.00
34297;BME280;20564;42.902;25.336;2023-08-08T05:37:20;97316.97;;;16.07;100.00
34297;BME280;20564;42.902;25.336;2023-08-08T05:39:47;97331.59;;;16.03;100.00
34297;BME280;20564;42.902;25.336;2023-08-08T05:42:14;97329.28;;;16.00;100.00
34297;BME280;20564;42.902;25.336;2023-08-08T05:44:41;97327.94;;;16.04;100.00
34297;BME280;20564;42.902;25.336;2023-08-08T05:47:08;97320.94;;;16.11;100.00
34297;BME280;20564;42.902;25.336;2023-08-08T05:49:35;97336.41;;;16.08;100.00
34297;BME280;20564;42.902;25.336;2023-08-08T05:52:03;97335.28;;;16.02;100.00
34297;BME280;20564;42.902;25.336;2023-08-08T05:54:29;97346.22;;;15.99;100.00
34297;BME280;20564;42.902;25.336;2023-08-08T05:57:02;97342.72;;;16.07;100.00
34297;BME280;20564;42.902;25.336;2023-08-08T05:59:29;97343.53;;;16.07;100.00
34297;BME280;20564;42.902;25.336;2023-08-08T06:01:56;97346.88;;;16.09;100.00
34297;BME280;20564;42.902;25.336;2023-08-08T06:04:23;97343.50;;;16.15;100.00
34297;BME280;20564;42.902;25.336;2023-08-08T06:06:50;97353.16;;;16.17;100.00
34297;BME280;20564;42.902;25.336;2023-08-08T06:09:17;97358.09;;;16.20;100.00
34297;BME280;20564;42.902;25.336;2023-08-08T06:11:44;97355.72;;;16.33;100.00
34297;BME280;20564;42.902;25.336;2023-08-08T06:14:11;97344.09;;;16.34;100.00
34297;BME280;20564;42.902;25.336;2023-08-08T06:16:37;97336.44;;;16.39;100.00
34297;BME280;20564;42.902;25.336;2023-08-08T06:19:07;97340.06;;;16.46;100.00
34297;BME280;20564;42.902;25.336;2023-08-08T06:21:35;97352.06;;;16.42;100.00
34297;BME280;20564;42.902;25.336;2023-08-08T06:24:02;97372.81;;;16.38;100.00
34297;BME280;20564;42.902;25.336;2023-08-08T06:26:30;97378.25;;;16.45;100.00
34297;BME280;20564;42.902;25.336;2023-08-08T06:28:56;97386.06;;;16.47;100.00
34297;BME280;20564;42.902;25.336;2023-08-08T06:31:23;97375.91;;;16.50;100.00
34297;BME280;20564;42.902;25.336;2023-08-08T06:33:50;97371.72;;;16.56;100.00
34297;BME280;20564;42.902;25.336;2023-08-08T06:36:17;97382.19;;;16.57;100.00
34297;BME280;20564;42.902;25.336;2023-08-08T06:38:44;97371.91;;;16.54;100.00
34297;BME280;20564;42.902;25.336;2023-08-08T06:41:11;97368.44;;;16.54;100.00
34297;BME280;20564;42.902;25.336;2023-08-08T06:43:39;97376.06;;;16.49;100.00
34297;BME280;20564;42.902;25.336;2023-08-08T06:46:06;97374.63;;;16.38;100.00
34297;BME280;20564;42.902;25.336;2023-08-08T06:48:33;97358.19;;;16.43;100.00
34297;BME280;20564;42.902;25.336;2023-08-08T06:51:00;97359.63;;;16.53;100.00
34297;BME280;20564;42.902;25.336;2023-08-08T06:53:27;97359.97;;;16.50;100.00
34297;BME280;20564;42.902;25.336;2023-08-08T06:55:53;97368.97;;;16.49;100.00
34297;BME280;20564;42.902;25.336;2023-08-08T06:58:21;97382.06;;;16.51;100.00
34297;BME280;20564;42.902;25.336;2023-08-08T07:00:47;97389.84;;;16.52;100.00
34297;BME280;20564;42.902;25.336;2023-08-08T07:03:15;97382.16;;;16.66;100.00
34297;BME280;20564;42.902;25.336;2023-08-08T07:05:42;97378.81;;;16.72;100.00
34297;BME280;20564;42.902;25.336;2023-08-08T07:08:08;97369.50;;;16.76;100.00
34297;BME280;20564;42.902;25.336;2023-08-08T07:10:36;97372.13;;;16.84;100.00
34297;BME280;20564;42.902;25.336;2023-08-08T07:13:03;97367.63;;;16.84;100.00
34297;BME280;20564;42.902;25.336;2023-08-08T07:15:30;97365.16;;;16.83;100.00
34297;BME280;20564;42.902;25.336;2023-08-08T07:17:57;97368.38;;;17.01;100.00
34297;BME280;20564;42.902;25.336;2023-08-08T07:20:24;97375.19;;;16.96;100.00
34297;BME280;20564;42.902;25.336;2023-08-08T07:22:52;97360.66;;;17.06;100.00
34297;BME280;20564;42.902;25.336;2023-08-08T07:25:19;97367.81;;;17.06;100.00
34297;BME280;20564;42.902;25.336;2023-08-08T07:27:46;97374.56;;;17.17;100.00
34297;BME280;20564;42.902;25.336;2023-08-08T07:30:13;97367.53;;;17.24;100.00
34297;BME280;20564;42.902;25.336;2023-08-08T07:32:40;97357.78;;;17.39;100.00
34297;BME280;20564;42.902;25.336;2023-08-08T07:35:07;97369.78;;;17.35;100.00
34297;BME280;20564;42.902;25.336;2023-08-08T07:37:35;97360.97;;;17.34;100.00
34297;BME280;20564;42.902;25.336;2023-08-08T07:40:02;97368.88;;;17.43;100.00
34297;BME280;20564;42.902;25.336;2023-08-08T07:42:30;97368.06;;;17.42;100.00
34297;BME280;20564;42.902;25.336;2023-08-08T07:44:57;97367.91;;;17.58;100.00
34297;BME280;20564;42.902;25.336;2023-08-08T07:47:24;97372.16;;;17.68;100.00
34297;BME280;20564;42.902;25.336;2023-08-08T07:49:51;97374.06;;;17.82;100.00
34297;BME280;20564;42.902;25.336;2023-08-08T07:52:18;97370.28;;;17.91;100.00
34297;BME280;20564;42.902;25.336;2023-08-08T07:54:45;97378.94;;;17.93;100.00
34297;BME280;20564;42.902;25.336;2023-08-08T07:57:12;97370.84;;;18.01;100.00
34297;BME280;20564;42.902;25.336;2023-08-08T07:59:40;97373.06;;;18.13;100.00
34297;BME280;20564;42.902;25.336;2023-08-08T08:02:07;97374.09;;;18.12;100.00
34297;BME280;20564;42.902;25.336;2023-08-08T08:04:34;97377.41;;;18.14;100.00
34297;BME280;20564;42.902;25.336;2023-08-08T08:07:02;97374.28;;;18.25;100.00
34297;BME280;20564;42.902;25.336;2023-08-08T08:09:29;97373.06;;;18.42;100.00
34297;BME280;20564;42.902;25.336;2023-08-08T08:11:59;97364.53;;;18.47;100.00
34297;BME280;20564;42.902;25.336;2023-08-08T08:14:27;97363.84;;;18.60;100.00
34297;BME280;20564;42.902;25.336;2023-08-08T08:16:54;97363.94;;;18.66;97.30
34297;BME280;20564;42.902;25.336;2023-08-08T08:19:21;97365.94;;;18.79;100.00
34297;BME280;20564;42.902;25.336;2023-08-08T08:21:48;97361.22;;;18.96;98.92
34297;BME280;20564;42.902;25.336;2023-08-08T08:24:14;97353.16;;;19.32;98.41
34297;BME280;20564;42.902;25.336;2023-08-08T08:26:43;97354.69;;;19.63;92.57
34297;BME280;20564;42.902;25.336;2023-08-08T08:29:10;97348.81;;;20.02;88.95
34297;BME280;20564;42.902;25.336;2023-08-08T08:31:37;97354.41;;;20.14;91.01
34297;BME280;20564;42.902;25.336;2023-08-08T08:34:05;97349.84;;;20.42;87.18
34297;BME280;20564;42.902;25.336;2023-08-08T08:36:32;97346.31;;;20.77;84.01
34297;BME280;20564;42.902;25.336;2023-08-08T08:38:59;97351.78;;;21.10;86.46
34297;BME280;20564;42.902;25.336;2023-08-08T08:41:27;97340.28;;;21.42;79.43
34297;BME280;20564;42.902;25.336;2023-08-08T08:43:55;97339.47;;;21.62;81.98
34297;BME280;20564;42.902;25.336;2023-08-08T08:46:22;97332.03;;;21.90;79.66
34297;BME280;20564;42.902;25.336;2023-08-08T08:48:54;97336.09;;;22.26;78.07
34297;BME280;20564;42.902;25.336;2023-08-08T08:51:26;97322.41;;;22.48;70.87
34297;BME280;20564;42.902;25.336;2023-08-08T08:53:54;97324.44;;;22.59;71.28
34297;BME280;20564;42.902;25.336;2023-08-08T08:56:23;97312.44;;;22.68;70.42
34297;BME280;20564;42.902;25.336;2023-08-08T08:58:50;97318.19;;;22.72;66.23
34297;BME280;20564;42.902;25.336;2023-08-08T09:01:18;97320.72;;;22.60;65.68
34297;BME280;20564;42.902;25.336;2023-08-08T09:03:48;97313.91;;;22.64;66.61
34297;BME280;20564;42.902;25.336;2023-08-08T09:06:16;97314.44;;;22.79;68.36
34297;BME280;20564;42.902;25.336;2023-08-08T09:08:46;97309.41;;;22.96;67.02
34297;BME280;20564;42.902;25.336;2023-08-08T09:11:14;97311.03;;;23.04;62.23
34297;BME280;20564;42.902;25.336;2023-08-08T09:13:40;97297.34;;;23.12;62.37
34297;BME280;20564;42.902;25.336;2023-08-08T09:16:08;97309.31;;;23.09;62.72
34297;BME280;20564;42.902;25.336;2023-08-08T09:18:35;97306.44;;;23.11;61.14
34297;BME280;20564;42.902;25.336;2023-08-08T09:21:05;97299.97;;;23.19;61.15
34297;BME280;20564;42.902;25.336;2023-08-08T09:23:32;97307.16;;;23.25;63.91
34297;BME280;20564;42.902;25.336;2023-08-08T09:25:59;97303.13;;;23.41;59.61
34297;BME280;20564;42.902;25.336;2023-08-08T09:28:27;97312.25;;;23.58;59.74
34297;BME280;20564;42.902;25.336;2023-08-08T09:30:54;97313.91;;;23.59;57.40
34297;BME280;20564;42.902;25.336;2023-08-08T09:33:21;97311.47;;;23.51;57.31
34297;BME280;20564;42.902;25.336;2023-08-08T09:35:48;97310.31;;;23.65;56.26
34297;BME280;20564;42.902;25.336;2023-08-08T09:38:15;97301.75;;;23.81;58.34
34297;BME280;20564;42.902;25.336;2023-08-08T09:40:42;97313.59;;;23.99;57.23
34297;BME280;20564;42.902;25.336;2023-08-08T09:43:12;97311.03;;;24.22;55.95
34297;BME280;20564;42.902;25.336;2023-08-08T09:45:42;97303.41;;;24.38;55.83
34297;BME280;20564;42.902;25.336;2023-08-08T09:48:11;97307.31;;;24.42;54.48
34297;BME280;20564;42.902;25.336;2023-08-08T09:50:40;97311.94;;;24.53;55.95
34297;BME280;20564;42.902;25.336;2023-08-08T09:53:08;97298.00;;;24.74;53.81
34297;BME280;20564;42.902;25.336;2023-08-08T09:55:35;97304.28;;;24.87;52.00
34297;BME280;20564;42.902;25.336;2023-08-08T09:58:04;97289.34;;;24.72;51.68
34297;BME280;20564;42.902;25.336;2023-08-08T10:00:31;97290.44;;;24.83;51.93
34297;BME280;20564;42.902;25.336;2023-08-08T10:03:00;97289.38;;;24.84;53.21
34297;BME280;20564;42.902;25.336;2023-08-08T10:05:28;97294.91;;;24.59;51.78
34297;BME280;20564;42.902;25.336;2023-08-08T10:07:55;97295.03;;;24.64;50.59
34297;BME280;20564;42.902;25.336;2023-08-08T10:10:24;97292.88;;;24.73;51.17
34297;BME280;20564;42.902;25.336;2023-08-08T10:12:52;97294.91;;;24.89;52.73
34297;BME280;20564;42.902;25.336;2023-08-08T10:15:19;97299.81;;;25.11;51.81
34297;BME280;20564;42.902;25.336;2023-08-08T10:17:46;97292.81;;;25.33;51.18
34297;BME280;20564;42.902;25.336;2023-08-08T10:20:20;97282.91;;;25.57;50.43
34297;BME280;20564;42.902;25.336;2023-08-08T10:22:47;97290.53;;;25.95;49.88
34297;BME280;20564;42.902;25.336;2023-08-08T10:25:33;97289.94;;;26.05;51.39
34297;BME280;20564;42.902;25.336;2023-08-08T10:28:10;97279.97;;;26.06;49.60
34297;BME280;20564;42.902;25.336;2023-08-08T10:31:01;97279.44;;;26.32;49.22
34297;BME280;20564;42.902;25.336;2023-08-08T10:33:40;97295.28;;;26.29;47.99
34297;BME280;20564;42.902;25.336;2023-08-08T10:36:09;97282.19;;;26.20;48.31
34297;BME280;20564;42.902;25.336;2023-08-08T10:38:48;97292.75;;;26.10;46.51
34297;BME280;20564;42.902;25.336;2023-08-08T10:41:18;97289.84;;;25.88;44.15
34297;BME280;20564;42.902;25.336;2023-08-08T10:46:28;97280.81;;;25.83;44.42
34297;BME280;20564;42.902;25.336;2023-08-08T10:49:05;97280.56;;;25.72;43.05
34297;BME280;20564;42.902;25.336;2023-08-08T10:51:40;97296.03;;;25.77;44.85
34297;BME280;20564;42.902;25.336;2023-08-08T10:54:12;97292.63;;;25.70;44.29
34297;BME280;20564;42.902;25.336;2023-08-08T10:56:48;97284.28;;;25.48;45.68
34297;BME280;20564;42.902;25.336;2023-08-08T10:59:17;97272.56;;;25.31;45.44
34297;BME280;20564;42.902;25.336;2023-08-08T11:01:47;97290.75;;;25.05;46.84
34297;BME280;20564;42.902;25.336;2023-08-08T11:04:16;97270.81;;;24.64;46.96
34297;BME280;20564;42.902;25.336;2023-08-08T11:06:45;97276.69;;;24.43;46.46
34297;BME280;20564;42.902;25.336;2023-08-08T11:09:14;97279.13;;;24.63;46.29
34297;BME280;20564;42.902;25.336;2023-08-08T11:11:44;97268.41;;;24.74;45.67
34297;BME280;20564;42.902;25.336;2023-08-08T11:14:15;97265.22;;;24.66;46.07
34297;BME280;20564;42.902;25.336;2023-08-08T11:16:44;97272.19;;;24.37;47.18
34297;BME280;20564;42.902;25.336;2023-08-08T11:19:12;97276.81;;;24.29;46.58
34297;BME280;20564;42.902;25.336;2023-08-08T11:21:42;97266.19;;;24.53;46.71
34297;BME280;20564;42.902;25.336;2023-08-08T11:24:10;97256.13;;;24.78;44.34
34297;BME280;20564;42.902;25.336;2023-08-08T11:26:41;97261.44;;;24.97;46.85
34297;BME280;20564;42.902;25.336;2023-08-08T11:29:11;97262.50;;;25.38;44.74
34297;BME280;20564;42.902;25.336;2023-08-08T11:31:39;97268.72;;;25.62;44.50
34297;BME280;20564;42.902;25.336;2023-08-08T11:34:08;97257.72;;;25.87;43.11
34297;BME280;20564;42.902;25.336;2023-08-08T11:36:39;97271.66;;;25.84;41.56
34297;BME280;20564;42.902;25.336;2023-08-08T11:39:08;97264.31;;;25.79;41.52
34297;BME280;20564;42.902;25.336;2023-08-08T11:41:37;97253.75;;;25.89;41.18
34297;BME280;20564;42.902;25.336;2023-08-08T11:44:06;97253.47;;;26.03;42.71
34297;BME280;20564;42.902;25.336;2023-08-08T11:46:43;97260.25;;;26.17;42.12
34297;BME280;20564;42.902;25.336;2023-08-08T11:49:13;97248.47;;;26.35;41.61
34297;BME280;20564;42.902;25.336;2023-08-08T11:51:43;97245.53;;;26.48;40.05
34297;BME280;20564;42.902;25.336;2023-08-08T11:54:13;97252.13;;;26.29;41.35
34297;BME280;20564;42.902;25.336;2023-08-08T11:56:40;97241.63;;;25.92;41.25
34297;BME280;20564;42.902;25.336;2023-08-08T11:59:08;97255.47;;;25.72;42.25
34297;BME280;20564;42.902;25.336;2023-08-08T12:01:35;97241.63;;;25.92;42.40
34297;BME280;20564;42.902;25.336;2023-08-08T12:04:09;97246.19;;;26.03;41.10
34297;BME280;20564;42.902;25.336;2023-08-08T12:06:37;97241.88;;;26.02;41.63
34297;BME280;20564;42.902;25.336;2023-08-08T12:09:13;97226.63;;;25.96;41.30
34297;BME280;20564;42.902;25.336;2023-08-08T12:11:41;97227.59;;;25.90;41.52
34297;BME280;20564;42.902;25.336;2023-08-08T12:14:08;97238.09;;;26.03;42.02
34297;BME280;20564;42.902;25.336;2023-08-08T12:16:42;97228.19;;;26.32;41.95
34297;BME280;20564;42.902;25.336;2023-08-08T12:19:10;97236.97;;;26.51;42.33
34297;BME280;20564;42.902;25.336;2023-08-08T12:21:38;97240.13;;;26.48;41.62
34297;BME280;20564;42.902;25.336;2023-08-08T12:24:08;97244.03;;;26.29;41.21
34297;BME280;20564;42.902;25.336;2023-08-08T12:26:35;97231.44;;;25.94;41.55
34297;BME280;20564;42.902;25.336;2023-08-08T12:29:02;97234.25;;;25.76;42.29
34297;BME280;20564;42.902;25.336;2023-08-08T12:31:28;97231.31;;;25.65;43.46
34297;BME280;20564;42.902;25.336;2023-08-08T12:33:56;97237.19;;;25.62;43.03
34297;BME280;20564;42.902;25.336;2023-08-08T12:36:23;97240.09;;;25.37;44.63
34297;BME280;20564;42.902;25.336;2023-08-08T12:38:50;97231.00;;;25.08;43.58
34297;BME280;20564;42.902;25.336;2023-08-08T12:41:17;97239.44;;;25.00;46.27
34297;BME280;20564;42.902;25.336;2023-08-08T12:43:44;97239.84;;;25.15;48.26
34297;BME280;20564;42.902;25.336;2023-08-08T12:46:11;97233.94;;;25.07;45.27
34297;BME280;20564;42.902;25.336;2023-08-08T12:48:38;97229.47;;;25.00;46.60
34297;BME280;20564;42.902;25.336;2023-08-08T12:51:05;97225.75;;;25.01;45.16